createdAt,value
2022-12-03T00:01:02.293Z,86.63
2022-12-03T00:03:29.593Z,87.42
2022-12-03T00:05:56.563Z,87.55
2022-12-03T00:08:23.395Z,87.18
2022-12-03T00:10:49.946Z,87.02
2022-12-03T00:13:16.647Z,87.41
2022-12-03T00:15:44.325Z,87.41
2022-12-03T00:18:10.949Z,86.93
2022-12-03T00:20:37.546Z,86.96
2022-12-03T00:23:04.096Z,87.68
2022-12-03T00:25:30.789Z,87.26
2022-12-03T00:27:57.497Z,87.39
2022-12-03T00:30:24.155Z,87.60
2022-12-03T00:32:50.875Z,87.29
2022-12-03T00:35:17.662Z,87.23
2022-12-03T00:37:45.368Z,87.66
2022-12-03T00:40:12.532Z,87.30
2022-12-03T00:42:39.202Z,87.98
2022-12-03T00:45:07.479Z,87.61
2022-12-03T00:47:39.350Z,87.77
2022-12-03T00:50:06.808Z,87.88
2022-12-03T00:52:33.490Z,87.59
2022-12-03T00:55:00.166Z,87.85
2022-12-03T00:57:26.903Z,88.08
2022-12-03T00:59:53.574Z,88.03
2022-12-03T01:02:20.288Z,87.99
2022-12-03T01:04:47.086Z,88.25
2022-12-03T01:07:13.708Z,88.14
2022-12-03T01:09:40.263Z,87.54
2022-12-03T01:12:06.835Z,87.51
2022-12-03T01:14:33.445Z,87.91
2022-12-03T01:17:00.123Z,87.71
2022-12-03T01:19:26.805Z,87.20
2022-12-03T01:21:53.696Z,87.70
2022-12-03T01:24:20.519Z,87.93
2022-12-03T01:26:47.459Z,88.10
2022-12-03T01:29:14.488Z,87.93
2022-12-03T01:31:59.782Z,88.42
2022-12-03T01:34:26.432Z,88.32
2022-12-03T01:36:53.299Z,88.39
2022-12-03T01:39:20.252Z,87.40
2022-12-03T01:41:49.008Z,87.33
2022-12-03T01:44:30.175Z,87.89
2022-12-03T01:46:59.426Z,87.83
2022-12-03T01:49:48.187Z,87.17
2022-12-03T01:52:22.433Z,88.06
2022-12-03T01:54:58.390Z,87.38
2022-12-03T01:57:29.364Z,87.75
2022-12-03T01:59:58.403Z,87.67
2022-12-03T02:02:28.340Z,87.95
2022-12-03T02:04:55.817Z,87.49
2022-12-03T02:07:31.003Z,87.46
2022-12-03T02:09:59.716Z,88.15
2022-12-03T02:12:36.552Z,86.75
2022-12-03T02:15:04.853Z,86.62
2022-12-03T02:17:32.241Z,87.44
2022-12-03T02:20:01.686Z,87.31
2022-12-03T02:22:46.830Z,87.80
2022-12-03T02:25:16.985Z,88.09
2022-12-03T02:27:44.543Z,87.57
2022-12-03T02:30:15.352Z,87.26
2022-12-03T02:32:42.373Z,86.88
2022-12-03T02:35:21.215Z,86.42
2022-12-03T02:37:52.666Z,85.81
2022-12-03T02:40:22.600Z,86.95
2022-12-03T02:42:51.430Z,86.43
2022-12-03T02:45:22.359Z,86.01
2022-12-03T02:47:54.336Z,86.20
2022-12-03T02:50:26.332Z,86.71
2022-12-03T02:52:56.114Z,86.69
2022-12-03T02:55:23.916Z,86.58
2022-12-03T02:57:51.564Z,86.13
2022-12-03T03:00:20.682Z,85.77
2022-12-03T03:02:47.340Z,86.80
2022-12-03T03:05:15.261Z,86.41
2022-12-03T03:07:42.311Z,85.93
2022-12-03T03:10:11.936Z,85.91
2022-12-03T03:12:39.584Z,85.56
2022-12-03T03:15:07.635Z,85.58
2022-12-03T03:17:34.329Z,85.62
2022-12-03T03:20:01.997Z,86.14
2022-12-03T03:22:33.343Z,86.33
2022-12-03T03:25:00.022Z,86.02
2022-12-03T03:27:28.201Z,85.41
2022-12-03T03:29:57.150Z,85.28
2022-12-03T03:32:24.961Z,85.49
2022-12-03T03:34:51.927Z,85.37
2022-12-03T03:37:18.976Z,85.39
2022-12-03T03:39:45.582Z,85.54
2022-12-03T03:42:12.207Z,85.33
2022-12-03T03:44:39.035Z,85.10
2022-12-03T03:47:06.102Z,85.17
2022-12-03T03:49:32.985Z,85.94
2022-12-03T03:51:59.788Z,85.57
2022-12-03T03:54:27.473Z,85.53
2022-12-03T03:56:54.078Z,85.24
2022-12-03T03:59:21.237Z,85.24
2022-12-03T04:01:47.974Z,85.41
2022-12-03T04:04:24.048Z,84.38
2022-12-03T04:06:50.710Z,85.00
2022-12-03T04:09:17.299Z,84.83
2022-12-03T04:12:02.578Z,84.88
2022-12-03T04:14:31.315Z,85.59
2022-12-03T04:16:57.931Z,84.96
2022-12-03T04:19:24.568Z,84.90
2022-12-03T04:22:09.736Z,85.06
2022-12-03T04:24:36.273Z,84.83
2022-12-03T04:27:21.284Z,85.50
2022-12-03T04:29:47.845Z,85.29
2022-12-03T04:32:32.895Z,85.20
2022-12-03T04:35:18.207Z,85.06
2022-12-03T04:37:44.908Z,84.65
2022-12-03T04:40:30.967Z,84.82
2022-12-03T04:42:57.589Z,84.58
2022-12-03T04:45:24.166Z,85.11
2022-12-03T04:47:50.779Z,85.51
2022-12-03T04:50:17.358Z,85.41
2022-12-03T04:52:43.890Z,84.59
2022-12-03T04:55:10.764Z,85.11
2022-12-03T04:57:37.302Z,85.58
2022-12-03T05:00:05.526Z,85.10
2022-12-03T05:02:32.171Z,85.06
2022-12-03T05:04:58.738Z,85.23
2022-12-03T05:07:25.381Z,85.31
2022-12-03T05:09:52.049Z,85.61
2022-12-03T05:12:18.654Z,84.76
2022-12-03T05:14:45.244Z,85.99
2022-12-03T05:17:11.827Z,86.11
2022-12-03T05:19:57.039Z,85.03
2022-12-03T05:22:23.641Z,86.02
2022-12-03T05:24:50.270Z,86.26
2022-12-03T05:27:23.144Z,85.90
2022-12-03T05:29:50.414Z,85.40
2022-12-03T05:32:18.337Z,85.71
2022-12-03T05:34:44.948Z,85.56
2022-12-03T05:37:11.499Z,85.29
2022-12-03T05:39:38.182Z,85.73
2022-12-03T05:42:24.068Z,85.56
2022-12-03T05:44:50.662Z,85.94
2022-12-03T05:47:17.202Z,85.93
2022-12-03T05:49:43.859Z,85.69
2022-12-03T05:52:10.509Z,85.59
2022-12-03T05:54:37.067Z,85.66
2022-12-03T05:57:04.698Z,86.35
2022-12-03T05:59:31.211Z,86.13
2022-12-03T06:01:57.781Z,86.12
2022-12-03T06:04:24.441Z,85.93
2022-12-03T06:06:50.984Z,85.44
2022-12-03T06:09:17.541Z,86.04
2022-12-03T06:11:44.161Z,86.44
2022-12-03T06:14:10.678Z,85.85
2022-12-03T06:16:37.283Z,86.07
2022-12-03T06:19:03.883Z,86.27
2022-12-03T06:21:30.408Z,86.78
2022-12-03T06:23:57.017Z,86.00
2022-12-03T06:26:23.572Z,86.23
2022-12-03T06:28:50.268Z,86.37
2022-12-03T06:31:16.877Z,86.13
2022-12-03T06:33:43.609Z,86.54
2022-12-03T06:36:10.235Z,86.77
2022-12-03T06:38:36.884Z,86.43
2022-12-03T06:41:03.471Z,86.78
2022-12-03T06:43:30.971Z,87.18
2022-12-03T06:45:57.596Z,86.71
2022-12-03T06:48:24.158Z,86.37
2022-12-03T06:50:50.696Z,86.22
2022-12-03T06:53:17.225Z,86.34
2022-12-03T06:55:43.875Z,86.71
2022-12-03T06:58:10.570Z,86.39
2022-12-03T07:00:37.088Z,86.41
2022-12-03T07:03:03.874Z,85.86
2022-12-03T07:05:30.514Z,86.26
2022-12-03T07:07:57.194Z,85.78
2022-12-03T07:10:23.831Z,85.71
2022-12-03T07:12:50.355Z,85.63
2022-12-03T07:15:17.039Z,85.86
2022-12-03T07:17:43.605Z,85.56
2022-12-03T07:20:10.893Z,85.57
2022-12-03T07:22:37.462Z,85.53
2022-12-03T07:25:05.379Z,85.26
2022-12-03T07:27:31.967Z,85.15
2022-12-03T07:29:58.670Z,85.09
2022-12-03T07:32:26.807Z,85.59
2022-12-03T07:34:53.515Z,84.83
2022-12-03T07:37:23.316Z,84.84
2022-12-03T07:39:52.326Z,85.56
2022-12-03T07:42:18.873Z,85.37
2022-12-03T07:44:45.415Z,85.21
2022-12-03T07:47:12.032Z,85.40
2022-12-03T07:49:38.666Z,85.20
2022-12-03T07:52:07.100Z,84.95
2022-12-03T07:54:33.892Z,85.09
2022-12-03T07:57:01.803Z,84.98
2022-12-03T07:59:29.404Z,84.58
2022-12-03T08:01:56.250Z,85.29
2022-12-03T08:04:22.851Z,85.30
2022-12-03T08:06:49.452Z,84.81
2022-12-03T08:09:16.609Z,85.63
2022-12-03T08:11:46.985Z,85.26
2022-12-03T08:14:15.632Z,85.21
2022-12-03T08:16:44.390Z,85.25
2022-12-03T08:19:12.278Z,84.60
2022-12-03T08:21:39.818Z,84.84
2022-12-03T08:24:12.860Z,85.27
2022-12-03T08:26:39.483Z,85.08
2022-12-03T08:29:11.478Z,85.75
2022-12-03T08:31:39.173Z,85.04
2022-12-03T08:34:20.973Z,84.81
2022-12-03T08:36:50.825Z,85.44
2022-12-03T08:39:37.819Z,85.32
2022-12-03T08:42:22.942Z,84.21
2022-12-03T08:44:49.531Z,84.54
2022-12-03T08:47:21.675Z,84.68
2022-12-03T08:50:06.391Z,85.28
2022-12-03T08:52:34.746Z,84.67
2022-12-03T08:55:28.869Z,85.13
2022-12-03T08:57:55.477Z,84.94
2022-12-03T09:00:24.139Z,85.21
2022-12-03T09:02:59.506Z,84.60
2022-12-03T09:05:32.372Z,84.69
2022-12-03T09:07:59.483Z,83.89
2022-12-03T09:10:26.120Z,84.29
2022-12-03T09:12:53.063Z,85.02
2022-12-03T09:15:19.561Z,84.68
2022-12-03T09:17:46.099Z,85.08
2022-12-03T09:20:13.114Z,84.71
2022-12-03T09:22:39.756Z,84.72
2022-12-03T09:25:06.941Z,85.14
2022-12-03T09:27:33.483Z,84.93
2022-12-03T09:29:59.993Z,84.88
2022-12-03T09:32:26.823Z,85.00
2022-12-03T09:34:53.916Z,84.47
2022-12-03T09:37:22.146Z,84.59
2022-12-03T09:39:49.069Z,84.51
2022-12-03T09:42:15.891Z,84.02
2022-12-03T09:44:42.526Z,84.36
2022-12-03T09:47:09.296Z,84.10
2022-12-03T09:49:38.475Z,83.88
2022-12-03T09:52:06.250Z,84.15
2022-12-03T09:54:33.730Z,84.17
2022-12-03T09:57:02.575Z,84.18
2022-12-03T09:59:34.661Z,84.14
2022-12-03T10:02:02.880Z,84.63
2022-12-03T10:04:29.989Z,84.75
2022-12-03T10:06:58.335Z,84.23
2022-12-03T10:09:28.055Z,84.07
2022-12-03T10:11:59.611Z,84.73
2022-12-03T10:14:27.527Z,84.18
2022-12-03T10:17:11.812Z,84.61
2022-12-03T10:19:39.560Z,84.80
2022-12-03T10:22:06.083Z,84.19
2022-12-03T10:24:34.403Z,84.58
2022-12-03T10:27:04.111Z,85.09
2022-12-03T10:29:34.799Z,84.71
2022-12-03T10:32:07.520Z,84.84
2022-12-03T10:34:42.067Z,83.72
2022-12-03T10:37:20.270Z,84.36
2022-12-03T10:39:57.677Z,83.34
2022-12-03T10:42:30.173Z,84.44
2022-12-03T10:45:20.102Z,84.94
2022-12-03T10:48:19.032Z,84.88
2022-12-03T10:50:55.466Z,84.29
2022-12-03T10:53:24.286Z,84.26
2022-12-03T10:55:52.559Z,84.76
2022-12-03T10:58:23.155Z,85.02
2022-12-03T11:00:52.551Z,85.29
2022-12-03T11:03:27.759Z,84.37
2022-12-03T11:05:56.138Z,84.48
2022-12-03T11:08:26.792Z,83.83
2022-12-03T11:11:18.096Z,85.22
2022-12-03T11:13:50.972Z,84.33
2022-12-03T11:16:39.290Z,84.68
2022-12-03T11:19:17.326Z,84.38
2022-12-03T11:22:05.674Z,83.89
2022-12-03T11:24:40.192Z,83.99
2022-12-03T11:27:09.641Z,83.78
2022-12-03T11:29:59.324Z,83.70
2022-12-03T11:32:38.134Z,83.78
2022-12-03T11:35:15.051Z,83.55
2022-12-03T11:37:41.709Z,84.44
2022-12-03T11:40:17.183Z,83.40
2022-12-03T11:42:46.031Z,84.42
2022-12-03T11:45:28.443Z,84.65
2022-12-03T11:48:13.105Z,84.52
2022-12-03T11:50:52.332Z,83.76
2022-12-03T11:53:26.880Z,84.96
2022-12-03T11:56:11.146Z,84.57
2022-12-03T11:58:42.349Z,83.32
2022-12-03T12:01:09.149Z,84.24
2022-12-03T12:03:42.313Z,83.86
2022-12-03T12:06:14.537Z,83.45
2022-12-03T12:09:03.609Z,84.00
2022-12-03T12:11:33.065Z,84.06
2022-12-03T12:14:09.900Z,83.87
2022-12-03T12:16:50.928Z,83.11
2022-12-03T12:19:38.477Z,83.77
2022-12-03T12:22:16.299Z,83.69
2022-12-03T12:24:46.896Z,83.44
2022-12-03T12:27:15.315Z,83.73
2022-12-03T12:29:45.713Z,84.13
2022-12-03T12:32:15.233Z,83.75
2022-12-03T12:34:47.295Z,83.62
2022-12-03T12:37:31.499Z,83.19
2022-12-03T12:39:58.507Z,83.75
2022-12-03T12:42:35.666Z,84.41
2022-12-03T12:45:08.105Z,83.66
2022-12-03T12:47:35.497Z,84.05
2022-12-03T12:50:09.288Z,83.40
2022-12-03T12:52:36.722Z,84.44
2022-12-03T12:55:09.362Z,84.13
2022-12-03T12:57:35.873Z,83.35
2022-12-03T13:00:04.704Z,84.53
2022-12-03T13:02:31.570Z,84.19
2022-12-03T13:04:58.164Z,83.92
2022-12-03T13:07:25.880Z,84.00
2022-12-03T13:09:55.744Z,84.53
2022-12-03T13:12:23.647Z,83.50
2022-12-03T13:14:52.181Z,84.11
2022-12-03T13:17:24.284Z,83.09
2022-12-03T13:19:58.327Z,83.83
2022-12-03T13:22:31.864Z,83.34
2022-12-03T13:25:27.947Z,83.90
2022-12-03T13:28:05.118Z,82.89
2022-12-03T13:30:31.606Z,83.16
2022-12-03T13:32:58.244Z,83.80
2022-12-03T13:35:35.182Z,82.97
2022-12-03T13:38:03.022Z,83.25
2022-12-03T13:40:32.877Z,82.92
2022-12-03T13:42:59.509Z,83.79
2022-12-03T13:45:40.957Z,83.84
2022-12-03T13:48:23.160Z,83.63
2022-12-03T13:50:51.571Z,83.21
2022-12-03T13:53:35.463Z,82.74
2022-12-03T13:56:15.551Z,83.40
2022-12-03T13:58:42.135Z,83.51
2022-12-03T14:01:08.729Z,84.03
2022-12-03T14:03:35.466Z,83.65
2022-12-03T14:06:02.052Z,82.89
2022-12-03T14:08:29.698Z,82.20
2022-12-03T14:11:00.395Z,82.37
2022-12-03T14:13:27.484Z,83.00
2022-12-03T14:15:54.010Z,83.68
2022-12-03T14:18:20.652Z,82.79
2022-12-03T14:20:48.148Z,83.39
2022-12-03T14:23:15.108Z,83.42
2022-12-03T14:25:43.886Z,83.20
2022-12-03T14:28:11.235Z,84.08
2022-12-03T14:30:37.877Z,84.22
2022-12-03T14:33:04.665Z,82.98
2022-12-03T14:35:31.195Z,83.28
2022-12-03T14:37:57.741Z,83.01
2022-12-03T14:40:24.357Z,83.37
2022-12-03T14:42:50.987Z,83.61
2022-12-03T14:45:17.605Z,83.43
2022-12-03T14:47:44.173Z,83.08
2022-12-03T14:50:14.271Z,83.59
2022-12-03T14:52:41.334Z,83.62
2022-12-03T14:55:08.322Z,83.89
2022-12-03T14:57:36.748Z,84.63
2022-12-03T15:00:05.558Z,84.62
2022-12-03T15:02:34.357Z,84.16
2022-12-03T15:05:01.137Z,84.90
2022-12-03T15:07:28.294Z,84.47
2022-12-03T15:09:55.163Z,84.68
2022-12-03T15:12:21.791Z,84.63
2022-12-03T15:14:48.396Z,84.93
2022-12-03T15:17:15.000Z,84.70
2022-12-03T15:19:41.611Z,84.61
2022-12-03T15:22:08.179Z,85.13
2022-12-03T15:24:34.851Z,84.70
2022-12-03T15:27:01.396Z,84.26
2022-12-03T15:29:27.963Z,84.75
2022-12-03T15:31:54.754Z,85.40
2022-12-03T15:34:23.127Z,85.45
2022-12-03T15:36:50.053Z,85.13
2022-12-03T15:39:16.560Z,85.11
2022-12-03T15:41:43.114Z,84.61
2022-12-03T15:44:09.684Z,84.44
2022-12-03T15:46:36.264Z,84.31
2022-12-03T15:49:03.098Z,84.72
2022-12-03T15:51:29.659Z,84.97
2022-12-03T15:53:56.203Z,84.42
2022-12-03T15:56:22.767Z,85.20
2022-12-03T15:58:49.295Z,84.83
2022-12-03T16:01:18.252Z,85.25
2022-12-03T16:03:45.117Z,85.08
2022-12-03T16:06:12.557Z,84.27
2022-12-03T16:08:39.131Z,84.80
2022-12-03T16:11:05.884Z,84.56
2022-12-03T16:13:32.462Z,84.82
2022-12-03T16:15:59.958Z,84.80
2022-12-03T16:18:26.684Z,84.98
2022-12-03T16:20:53.289Z,84.53
2022-12-03T16:23:19.842Z,84.74
2022-12-03T16:25:46.446Z,85.50
2022-12-03T16:28:13.009Z,84.69
2022-12-03T16:30:39.651Z,84.93
2022-12-03T16:33:06.214Z,85.51
2022-12-03T16:35:32.800Z,84.72
2022-12-03T16:37:59.314Z,85.81
2022-12-03T16:40:26.767Z,85.14
2022-12-03T16:42:53.254Z,85.01
2022-12-03T16:45:22.689Z,85.32
2022-12-03T16:47:49.991Z,84.93
2022-12-03T16:50:24.476Z,85.98
2022-12-03T16:52:55.667Z,85.57
2022-12-03T16:55:22.296Z,85.96
2022-12-03T16:57:49.080Z,85.20
2022-12-03T17:00:16.291Z,85.83
2022-12-03T17:02:42.899Z,85.70
2022-12-03T17:05:09.490Z,85.24
2022-12-03T17:07:36.125Z,85.63
2022-12-03T17:10:02.776Z,85.13
2022-12-03T17:12:42.125Z,85.82
2022-12-03T17:15:14.801Z,85.71
2022-12-03T17:17:41.346Z,84.74
2022-12-03T17:20:08.674Z,85.46
2022-12-03T17:22:35.390Z,85.02
2022-12-03T17:25:01.966Z,84.38
2022-12-03T17:27:29.484Z,84.94
2022-12-03T17:29:56.348Z,84.86
2022-12-03T17:32:23.069Z,84.79
2022-12-03T17:34:49.602Z,84.71
2022-12-03T17:37:16.172Z,84.77
2022-12-03T17:39:42.700Z,85.29
2022-12-03T17:42:09.254Z,85.31
2022-12-03T17:44:35.774Z,85.19
2022-12-03T17:47:02.369Z,85.10
2022-12-03T17:49:31.650Z,84.44
2022-12-03T17:51:58.308Z,84.76
2022-12-03T17:54:34.114Z,85.10
2022-12-03T17:57:11.739Z,84.51
2022-12-03T17:59:38.271Z,85.11
2022-12-03T18:02:04.891Z,84.88
2022-12-03T18:04:31.593Z,84.68
2022-12-03T18:07:02.140Z,84.67
2022-12-03T18:09:29.055Z,84.92
2022-12-03T18:11:55.797Z,85.59
2022-12-03T18:14:22.346Z,85.54
2022-12-03T18:16:48.857Z,85.71
2022-12-03T18:19:15.653Z,85.36
2022-12-03T18:21:42.292Z,85.16
2022-12-03T18:24:09.179Z,84.79
2022-12-03T18:26:35.769Z,85.41
2022-12-03T18:29:02.557Z,85.70
2022-12-03T18:31:29.172Z,85.19
2022-12-03T18:33:55.809Z,85.03
2022-12-03T18:36:25.713Z,85.42
2022-12-03T18:38:55.198Z,85.37
2022-12-03T18:41:25.215Z,85.23
2022-12-03T18:43:52.098Z,85.31
2022-12-03T18:49:06.608Z,85.22
2022-12-03T18:51:33.123Z,85.26
2022-12-03T18:53:59.652Z,85.76
2022-12-03T18:56:26.229Z,85.23
2022-12-03T18:58:52.790Z,85.56
2022-12-03T19:01:22.455Z,85.40
2022-12-03T19:03:49.809Z,85.33
2022-12-03T19:06:19.255Z,85.21
2022-12-03T19:08:48.188Z,85.71
2022-12-03T19:11:15.372Z,85.76
2022-12-03T19:13:42.368Z,85.49
2022-12-03T19:16:10.537Z,86.21
2022-12-03T19:18:37.563Z,85.64
2022-12-03T19:21:12.773Z,85.87
2022-12-03T19:23:39.997Z,85.25
2022-12-03T19:26:09.109Z,85.51
2022-12-03T19:28:36.190Z,85.42
2022-12-03T19:31:09.031Z,85.24
2022-12-03T19:33:36.267Z,85.04
2022-12-03T19:36:05.349Z,85.32
2022-12-03T19:38:32.620Z,85.25
2022-12-03T19:41:08.240Z,85.24
2022-12-03T19:43:36.511Z,85.42
2022-12-03T19:46:05.192Z,85.33
2022-12-03T19:48:32.544Z,84.98
2022-12-03T19:51:19.736Z,84.69
2022-12-03T19:53:47.932Z,85.54
2022-12-03T19:56:17.171Z,84.60
2022-12-03T19:58:45.581Z,84.62
2022-12-03T20:01:15.440Z,84.33
2022-12-03T20:03:44.771Z,84.76
2022-12-03T20:06:12.483Z,84.95
2022-12-03T20:08:39.819Z,84.85
2022-12-03T20:11:16.273Z,84.61
2022-12-03T20:13:43.925Z,85.14
2022-12-03T20:16:13.887Z,85.02
2022-12-03T20:18:45.561Z,85.29
2022-12-03T20:21:14.318Z,84.41
2022-12-03T20:23:41.814Z,85.34
2022-12-03T20:26:09.747Z,85.44
2022-12-03T20:28:36.640Z,85.29
2022-12-03T20:31:09.578Z,84.42
2022-12-03T20:33:38.118Z,85.10
2022-12-03T20:36:05.029Z,85.25
2022-12-03T20:38:32.018Z,85.43
2022-12-03T20:41:03.117Z,85.17
2022-12-03T20:43:29.809Z,84.88
2022-12-03T20:46:02.385Z,85.29
2022-12-03T20:48:29.699Z,85.54
2022-12-03T20:50:56.231Z,85.19
2022-12-03T20:53:25.383Z,85.25
2022-12-03T20:55:56.709Z,85.34
2022-12-03T20:58:23.255Z,85.10
2022-12-03T21:00:49.948Z,85.79
2022-12-03T21:03:16.652Z,85.88
2022-12-03T21:05:43.968Z,85.48
2022-12-03T21:08:11.693Z,85.19
2022-12-03T21:10:46.598Z,85.87
2022-12-03T21:13:18.164Z,85.74
2022-12-03T21:15:45.525Z,85.59
2022-12-03T21:18:14.724Z,85.39
2022-12-03T21:20:44.064Z,85.25
2022-12-03T21:23:11.255Z,85.94
2022-12-03T21:25:38.800Z,85.88
2022-12-03T21:28:07.259Z,85.81
2022-12-03T21:30:37.676Z,85.22
2022-12-03T21:33:04.495Z,85.73
2022-12-03T21:35:31.307Z,84.90
2022-12-03T21:37:58.250Z,85.93
2022-12-03T21:40:25.001Z,85.86
2022-12-03T21:42:51.719Z,85.85
2022-12-03T21:45:18.538Z,85.92
2022-12-03T21:47:48.649Z,86.03
2022-12-03T21:50:15.540Z,85.69
2022-12-03T21:52:42.215Z,85.75
2022-12-03T21:55:11.934Z,85.11
2022-12-03T21:57:38.636Z,85.32
2022-12-03T22:00:08.223Z,85.13
2022-12-03T22:02:43.895Z,85.60
2022-12-03T22:05:11.874Z,85.51
2022-12-03T22:07:39.784Z,85.92
2022-12-03T22:10:15.511Z,85.45
2022-12-03T22:12:45.255Z,85.20
2022-12-03T22:15:18.113Z,85.88
2022-12-03T22:17:51.550Z,86.02
2022-12-03T22:20:18.359Z,85.99
2022-12-03T22:22:48.046Z,85.31
2022-12-03T22:25:17.047Z,85.23
2022-12-03T22:27:43.735Z,85.69
2022-12-03T22:30:10.618Z,85.51
2022-12-03T22:32:37.267Z,85.65
2022-12-03T22:35:04.152Z,86.04
2022-12-03T22:37:32.744Z,85.65
2022-12-03T22:40:05.473Z,86.09
2022-12-03T22:42:33.288Z,86.31
2022-12-03T22:47:54.010Z,85.66
2022-12-03T22:50:20.626Z,86.43
2022-12-03T22:52:47.281Z,86.24
2022-12-03T22:55:13.980Z,85.71
2022-12-03T22:57:40.587Z,86.19
2022-12-03T23:00:12.976Z,86.01
2022-12-03T23:02:39.738Z,86.13
2022-12-03T23:05:06.965Z,86.48
2022-12-03T23:07:33.589Z,86.34
2022-12-03T23:10:00.249Z,85.65
2022-12-03T23:12:29.821Z,86.24
2022-12-03T23:14:56.403Z,86.13
2022-12-03T23:17:24.922Z,85.98
2022-12-03T23:19:51.871Z,86.57
2022-12-03T23:22:18.598Z,86.70
2022-12-03T23:24:45.666Z,86.66
2022-12-03T23:27:12.278Z,86.35
2022-12-03T23:29:38.889Z,85.88
2022-12-03T23:32:05.638Z,86.29
2022-12-03T23:34:32.490Z,85.56
2022-12-03T23:36:59.118Z,86.06
2022-12-03T23:39:25.697Z,85.92
2022-12-03T23:41:52.453Z,85.75
2022-12-03T23:44:19.061Z,85.83
2022-12-03T23:46:45.744Z,85.66
2022-12-03T23:49:12.349Z,86.21
2022-12-03T23:51:38.874Z,85.91
2022-12-03T23:54:05.702Z,86.15
2022-12-03T23:56:32.479Z,86.40
2022-12-03T23:58:59.144Z,85.42
